Time;durP1;ratioP1;P1;durP2;ratioP2;P2;SDS_P1;SDS_P2;PMS_P1;PMS_P2;Temp;Humidity;BMP_temperature;BMP_pressure;BME280_temperature;BME280_humidity;BME280_pressure;Samples;Min_cycle;Max_cycle;Signal;HPM_P1;HPM_P2
2022/05/13 00:01:54;;;;;;;13.20;2.63;;;;;;;15.49;48.86;101749.69;5011975;28;20038;-61
2022/05/13 00:04:20;;;;;;;9.27;2.30;;;;;;;15.50;49.31;101734.56;5011154;28;20080;-61
2022/05/13 00:06:45;;;;;;;10.50;2.50;;;;;;;15.59;49.00;101737.72;5006594;28;20120;-61
2022/05/13 00:09:11;;;;;;;8.75;2.85;;;;;;;15.54;49.00;101740.47;5011884;28;20038;-61
2022/05/13 00:11:37;;;;;;;11.82;2.88;;;;;;;15.41;49.51;101737.00;5012019;28;20526;-61
2022/05/13 00:14:06;;;;;;;15.60;2.88;;;;;;;15.42;49.61;101727.50;5012225;28;20120;-61
2022/05/13 00:16:35;;;;;;;11.70;3.00;;;;;;;15.32;49.67;101744.16;5017998;28;20060;-62
2022/05/13 00:19:04;;;;;;;8.45;2.83;;;;;;;15.25;50.27;101734.28;5012655;28;20109;-61
2022/05/13 00:21:29;;;;;;;10.07;2.78;;;;;;;15.24;50.41;101739.03;5005283;28;20117;-61
2022/05/13 00:23:55;;;;;;;8.93;2.97;;;;;;;15.25;50.30;101737.09;5007688;28;20529;-61
2022/05/13 00:26:20;;;;;;;9.98;2.85;;;;;;;15.37;49.93;101740.59;5015945;28;20033;-61
2022/05/13 00:28:45;;;;;;;11.07;2.65;;;;;;;15.30;50.12;101734.38;5009526;28;20049;-61
2022/05/13 00:31:12;;;;;;;9.38;2.78;;;;;;;15.18;50.41;101731.72;5011640;28;20824;-61
2022/05/13 00:33:37;;;;;;;11.75;2.92;;;;;;;15.16;50.55;101729.16;5011545;28;20041;-61
2022/05/13 00:36:03;;;;;;;10.85;3.03;;;;;;;15.16;50.74;101734.75;5014502;28;20038;-61
2022/05/13 00:38:28;;;;;;;7.88;3.03;;;;;;;15.13;50.73;101732.50;5009573;28;20034;-61
2022/05/13 00:40:53;;;;;;;11.38;3.08;;;;;;;15.15;50.76;101735.88;5010344;28;20034;-61
2022/05/13 00:43:44;;;;;;;9.93;2.90;;;;;;;15.22;50.01;101739.31;5010667;28;20026;-61
2022/05/13 00:46:10;;;;;;;12.13;3.08;;;;;;;15.06;50.63;101739.41;5010367;28;20113;-61
2022/05/13 00:48:35;;;;;;;8.82;2.63;;;;;;;14.94;50.80;101732.00;5010899;28;20129;-61
2022/05/13 00:51:01;;;;;;;13.68;3.05;;;;;;;14.90;50.63;101733.63;5011341;28;20477;-61
2022/05/13 00:53:27;;;;;;;7.95;2.63;;;;;;;14.83;51.17;101730.19;5011346;28;20032;-61
2022/05/13 00:55:53;;;;;;;8.40;2.60;;;;;;;14.75;50.93;101730.66;5008724;28;20061;-61
2022/05/13 00:58:19;;;;;;;9.10;3.22;;;;;;;14.82;50.65;101731.28;5008544;28;20040;-61
2022/05/13 01:00:46;;;;;;;6.50;2.60;;;;;;;14.91;50.16;101731.69;5011104;28;20117;-61
2022/05/13 01:03:12;;;;;;;10.38;3.15;;;;;;;14.83;49.98;101724.59;5010037;28;20061;-61
2022/05/13 01:05:41;;;;;;;8.48;2.60;;;;;;;14.86;49.87;101728.84;5008828;28;20123;-61
2022/05/13 01:08:07;;;;;;;11.63;2.78;;;;;;;14.79;49.34;101734.59;5010530;28;20061;-61
2022/05/13 01:10:35;;;;;;;7.43;2.20;;;;;;;14.66;49.85;101733.06;5008751;28;20036;-62
2022/05/13 01:13:06;;;;;;;7.13;2.40;;;;;;;14.72;49.38;101733.94;5008186;28;20580;-61
2022/05/13 01:15:34;;;;;;;9.18;2.38;;;;;;;14.60;49.18;101725.69;5009221;28;20029;-61
2022/05/13 01:18:05;;;;;;;10.45;2.70;;;;;;;14.73;49.25;101718.88;5009835;28;20041;-61
2022/05/13 01:20:37;;;;;;;5.95;2.03;;;;;;;14.59;48.84;101726.81;5013482;28;20037;-62
2022/05/13 01:23:12;;;;;;;5.10;1.90;;;;;;;14.63;49.10;101732.72;5011864;28;20034;-61
2022/05/13 01:25:43;;;;;;;5.88;2.35;;;;;;;14.56;48.78;101718.09;5010223;28;20026;-61
2022/05/13 01:28:13;;;;;;;8.07;2.20;;;;;;;14.60;48.80;101724.84;5008102;28;20489;-61
2022/05/13 01:30:43;;;;;;;7.03;2.00;;;;;;;14.59;48.90;101720.38;5005990;28;20037;-61
2022/05/13 01:33:10;;;;;;;8.77;2.38;;;;;;;14.60;48.55;101722.91;5010305;28;20029;-62
2022/05/13 01:35:41;;;;;;;7.53;2.13;;;;;;;14.54;48.77;101723.06;5014369;28;20474;-62
2022/05/13 01:38:07;;;;;;;6.70;2.05;;;;;;;14.49;48.64;101733.06;5010883;28;20113;-61
2022/05/13 01:40:32;;;;;;;4.05;1.90;;;;;;;14.53;48.72;101726.97;5007499;28;20156;-61
2022/05/13 01:42:57;;;;;;;7.28;2.00;;;;;;;14.40;48.70;101729.00;5011212;28;20062;-61
2022/05/13 01:45:22;;;;;;;6.75;2.10;;;;;;;14.49;48.95;101735.03;5008591;28;20038;-61
2022/05/13 01:47:48;;;;;;;7.80;2.00;;;;;;;14.43;48.71;101728.50;5011162;28;20030;-61
2022/05/13 01:50:13;;;;;;;8.35;2.45;;;;;;;14.43;48.64;101734.09;5015575;28;20042;-62
2022/05/13 01:52:38;;;;;;;5.00;2.03;;;;;;;14.40;48.83;101728.19;5010608;28;20037;-61
2022/05/13 01:55:04;;;;;;;6.20;1.77;;;;;;;14.41;49.04;101727.06;5009679;28;20041;-61
2022/05/13 01:57:29;;;;;;;4.25;1.70;;;;;;;14.38;49.53;101734.03;5009806;28;20083;-61
2022/05/13 01:59:55;;;;;;;7.63;1.83;;;;;;;14.45;49.06;101740.25;5008548;28;20055;-61
2022/05/13 02:02:20;;;;;;;8.48;2.00;;;;;;;14.36;48.99;101733.44;5011518;28;20080;-61
2022/05/13 02:04:46;;;;;;;6.25;2.40;;;;;;;14.38;48.86;101734.03;5010470;28;20084;-61
2022/05/13 02:07:11;;;;;;;6.07;1.48;;;;;;;14.42;49.14;101732.41;5010120;28;20363;-61
2022/05/13 02:09:36;;;;;;;6.10;1.75;;;;;;;14.35;49.28;101737.34;5008538;28;20040;-61
2022/05/13 02:12:02;;;;;;;5.50;2.05;;;;;;;14.34;49.03;101732.81;5009265;28;20038;-61
2022/05/13 02:14:27;;;;;;;5.20;1.70;;;;;;;14.39;49.48;101732.91;5009339;28;20099;-61
2022/05/13 02:16:52;;;;;;;6.57;1.60;;;;;;;14.38;49.12;101733.16;5009866;28;20123;-61
2022/05/13 02:19:17;;;;;;;8.40;2.28;;;;;;;14.31;49.74;101729.72;5013078;28;20030;-61
2022/05/13 02:21:43;;;;;;;7.93;2.45;;;;;;;14.28;49.69;101728.28;5009143;28;20026;-61
2022/05/13 02:24:09;;;;;;;6.47;1.88;;;;;;;14.27;50.03;101725.75;5011131;28;20026;-61
2022/05/13 02:26:34;;;;;;;6.75;2.00;;;;;;;14.35;49.91;101728.94;5007571;28;20045;-61
2022/05/13 02:29:01;;;;;;;7.45;1.85;;;;;;;14.31;50.15;101722.19;5010654;28;20042;-61
2022/05/13 02:31:27;;;;;;;9.45;2.13;;;;;;;14.38;50.03;101734.03;5009101;28;20038;-61
2022/05/13 02:33:53;;;;;;;10.60;2.00;;;;;;;14.41;49.67;101727.06;5009340;28;20050;-61
2022/05/13 02:36:18;;;;;;;5.70;1.90;;;;;;;14.39;49.96;101726.50;5021456;28;20045;-61
2022/05/13 02:38:44;;;;;;;6.35;2.00;;;;;;;14.35;50.36;101723.38;5010819;28;20497;-61
2022/05/13 02:41:12;;;;;;;7.50;2.05;;;;;;;14.34;49.99;101724.44;5012228;28;20038;-61
2022/05/13 02:43:40;;;;;;;8.95;2.38;;;;;;;14.28;50.62;101724.66;5013420;28;20018;-61
2022/05/13 02:46:05;;;;;;;5.43;1.95;;;;;;;14.33;50.15;101731.13;5011528;28;20686;-61
2022/05/13 02:48:31;;;;;;;5.95;2.17;;;;;;;14.39;50.05;101723.69;5010740;28;20034;-61
2022/05/13 02:50:56;;;;;;;7.65;2.20;;;;;;;14.29;50.90;101717.94;5012727;28;20045;-61
2022/05/13 02:53:22;;;;;;;5.82;2.17;;;;;;;14.35;50.68;101720.56;5013506;28;20378;-61
2022/05/13 02:55:48;;;;;;;7.97;2.22;;;;;;;14.23;51.07;101719.84;5012301;28;20026;-61
2022/05/13 02:58:14;;;;;;;9.98;2.47;;;;;;;14.13;51.53;101716.88;5013628;28;20025;-61
2022/05/13 03:00:39;;;;;;;11.60;2.42;;;;;;;14.24;51.36;101711.19;5012270;28;20109;-61
2022/05/13 03:03:05;;;;;;;10.43;2.55;;;;;;;14.34;51.57;101718.03;5013488;28;20676;-61
2022/05/13 03:05:32;;;;;;;7.05;2.20;;;;;;;14.21;51.90;101725.66;5011079;28;20026;-61
2022/05/13 03:08:01;;;;;;;8.13;2.35;;;;;;;14.30;51.67;101720.47;5013216;28;20037;-61
2022/05/13 03:10:30;;;;;;;10.50;2.72;;;;;;;14.27;51.79;101718.22;5011002;28;20469;-61
2022/05/13 03:12:56;;;;;;;8.80;2.70;;;;;;;14.15;52.29;101725.88;5013910;28;20113;-61
2022/05/13 03:15:21;;;;;;;10.98;2.78;;;;;;;14.16;52.66;101730.34;5012091;28;20080;-61
2022/05/13 03:17:47;;;;;;;9.40;2.72;;;;;;;14.17;53.12;101713.31;5011718;28;20034;-61
2022/05/13 03:20:17;;;;;;;11.43;2.80;;;;;;;14.16;53.02;101722.81;5012571;28;20026;-61
2022/05/13 03:22:45;;;;;;;13.05;3.00;;;;;;;14.14;53.17;101716.63;5012448;28;20413;-61
2022/05/13 03:25:11;;;;;;;10.73;2.70;;;;;;;14.20;53.18;101712.81;5013088;28;20040;-61
2022/05/13 03:27:37;;;;;;;11.25;2.70;;;;;;;14.27;53.14;101714.59;5012617;28;20038;-61
2022/05/13 03:30:05;;;;;;;12.18;2.95;;;;;;;14.23;52.96;101711.47;5012375;28;20509;-61
2022/05/13 03:32:30;;;;;;;13.15;3.05;;;;;;;14.15;53.31;101714.69;5011625;28;20049;-61
2022/05/13 03:34:55;;;;;;;10.18;3.30;;;;;;;14.13;53.66;101702.94;5010677;28;20050;-61
2022/05/13 03:37:21;;;;;;;11.40;3.03;;;;;;;14.16;53.73;101708.00;5012073;28;20045;-61
2022/05/13 03:39:46;;;;;;;7.57;2.95;;;;;;;14.16;53.66;101708.00;5012909;28;20067;-61
2022/05/13 03:42:11;;;;;;;9.98;3.15;;;;;;;14.16;53.17;101710.78;5012860;28;20397;-61
2022/05/13 03:44:37;;;;;;;10.25;3.60;;;;;;;14.18;53.25;101712.19;5011770;28;20041;-61
2022/05/13 03:47:03;;;;;;;11.90;3.28;;;;;;;14.10;53.93;101718.22;5010148;28;20436;-61
2022/05/13 03:49:28;;;;;;;15.85;3.45;;;;;;;14.07;53.89;101713.19;5011539;28;20539;-61
2022/05/13 03:51:54;;;;;;;13.30;3.30;;;;;;;14.04;54.08;101712.84;5009010;28;20034;-61
2022/05/13 03:54:19;;;;;;;8.02;3.30;;;;;;;14.03;54.14;101711.13;5012175;28;20084;-61
2022/05/13 03:56:44;;;;;;;13.15;3.65;;;;;;;14.12;53.54;101701.25;5012006;28;20497;-61
2022/05/13 03:59:10;;;;;;;15.00;3.80;;;;;;;14.19;53.58;101707.50;5010862;28;20075;-61
2022/05/13 04:01:35;;;;;;;15.13;3.33;;;;;;;14.10;54.11;101714.59;5011591;28;20018;-61
2022/05/13 04:04:00;;;;;;;9.20;3.40;;;;;;;14.12;53.63;101707.66;5012405;28;20137;-61
2022/05/13 04:09:09;;;;;;;14.45;3.53;;;;;;;14.00;54.47;101710.56;5012035;28;20459;-61
2022/05/13 04:11:38;;;;;;;11.40;3.58;;;;;;;13.93;54.40;101712.66;5012039;28;20038;-61
2022/05/13 04:16:52;;;;;;;13.32;3.67;;;;;;;13.87;55.15;101716.50;5010744;28;20100;-61
2022/05/13 04:19:19;;;;;;;13.63;3.72;;;;;;;13.94;54.96;101719.94;5008321;28;20028;-61
2022/05/13 04:21:44;;;;;;;10.68;3.42;;;;;;;13.87;54.64;101716.50;5010693;28;20480;-61
2022/05/13 04:24:16;;;;;;;10.77;3.70;;;;;;;13.90;55.04;101713.16;5010404;28;20038;-61
2022/05/13 04:26:42;;;;;;;13.90;3.55;;;;;;;13.86;54.71;101717.56;5009531;28;20030;-61
2022/05/13 04:29:08;;;;;;;11.15;3.03;;;;;;;13.90;54.70;101718.75;5011274;28;20042;-61
2022/05/13 04:31:39;;;;;;;13.00;3.20;;;;;;;13.88;54.76;101734.91;5010670;28;20417;-61
2022/05/13 04:34:06;;;;;;;8.82;3.47;;;;;;;13.92;54.79;101718.53;5010654;28;20046;-61
2022/05/13 04:36:32;;;;;;;13.80;3.70;;;;;;;13.94;54.34;101721.88;5010570;28;20034;-61
2022/05/13 04:38:57;;;;;;;10.77;3.60;;;;;;;13.86;55.19;101719.53;5010835;28;20038;-61
2022/05/13 04:44:10;;;;;;;14.20;3.80;;;;;;;13.86;55.42;101739.91;5011573;28;20048;-61
2022/05/13 04:46:35;;;;;;;11.25;3.53;;;;;;;13.87;55.00;101738.81;5011277;28;20052;-61
2022/05/13 04:49:01;;;;;;;22.02;6.10;;;;;;;13.89;55.25;101749.72;5007862;28;20156;-61
2022/05/13 04:51:26;;;;;;;12.95;3.80;;;;;;;13.93;55.25;101742.53;5010079;28;20030;-61
2022/05/13 04:53:54;;;;;;;14.48;3.60;;;;;;;13.96;55.56;101747.59;5011544;28;20145;-61
2022/05/13 04:56:21;;;;;;;11.18;3.88;;;;;;;13.92;55.43;101755.63;5009467;28;20045;-61
2022/05/13 04:58:47;;;;;;;13.10;4.05;;;;;;;13.95;55.60;101749.56;5012144;28;20038;-61
2022/05/13 05:01:13;;;;;;;16.85;5.32;;;;;;;13.95;55.61;101755.13;5006040;28;20044;-61
2022/05/13 05:03:42;;;;;;;17.48;4.25;;;;;;;13.88;55.58;101751.66;5010872;28;20026;-61
2022/05/13 05:06:09;;;;;;;13.00;3.95;;;;;;;13.93;55.56;101765.69;5009860;28;20104;-61
2022/05/13 05:08:35;;;;;;;11.82;4.05;;;;;;;13.91;55.75;101756.75;5009947;28;20096;-60
2022/05/13 05:11:02;;;;;;;10.48;3.75;;;;;;;13.90;55.80;101765.34;5010925;28;20030;-61
2022/05/13 05:13:50;;;;;;;10.75;3.65;;;;;;;13.99;55.10;101773.06;5007944;28;20054;-61
2022/05/13 05:16:16;;;;;;;12.38;3.80;;;;;;;13.91;56.29;101767.91;5001334;28;20132;-60
2022/05/13 05:18:43;;;;;;;12.25;3.80;;;;;;;13.88;56.02;101767.56;5009902;28;20045;-61
2022/05/13 05:21:09;;;;;;;12.90;4.00;;;;;;;13.86;56.36;101775.34;5011303;28;20025;-61
2022/05/13 05:23:38;;;;;;;15.07;4.13;;;;;;;13.92;55.93;101779.91;5009289;28;20087;-61
2022/05/13 05:26:04;;;;;;;11.65;4.00;;;;;;;13.93;56.05;101782.44;5009382;28;20113;-61
2022/05/13 05:28:29;;;;;;;15.45;3.85;;;;;;;13.93;55.95;101782.44;5010146;28;20207;-61
2022/05/13 05:31:01;;;;;;;11.98;3.85;;;;;;;13.90;56.33;101782.09;5009462;28;20036;-61
2022/05/13 05:33:27;;;;;;;14.80;4.45;;;;;;;13.89;56.70;101799.94;5010261;28;20050;-61
2022/05/13 05:35:52;;;;;;;20.42;5.25;;;;;;;13.92;56.38;101811.47;5009247;28;20457;-62
2022/05/13 05:38:18;;;;;;;15.15;4.45;;;;;;;14.02;56.19;101802.41;5009107;28;20528;-61
2022/05/13 05:40:44;;;;;;;13.93;3.63;;;;;;;13.96;56.49;101809.84;5008350;28;20147;-61
2022/05/13 05:43:12;;;;;;;11.25;3.78;;;;;;;14.08;56.50;101806.16;5010990;28;20449;-62
2022/05/13 05:45:40;;;;;;;14.20;4.10;;;;;;;14.06;56.64;101813.91;5001708;28;20034;-62
2022/05/13 05:48:06;;;;;;;15.15;3.92;;;;;;;14.03;56.92;101814.41;5006921;28;20040;-62
2022/05/13 05:50:32;;;;;;;17.85;4.20;;;;;;;14.08;56.75;101812.56;5011272;28;20034;-62
2022/05/13 05:52:57;;;;;;;15.20;4.25;;;;;;;14.12;56.43;101818.50;5004260;28;20037;-61
2022/05/13 05:58:09;;;;;;;15.73;4.22;;;;;;;14.15;56.56;101829.16;5008812;28;20049;-61
2022/05/13 06:00:38;;;;;;;13.65;4.43;;;;;;;14.14;56.65;101833.88;5003253;28;20044;-62
2022/05/13 06:03:04;;;;;;;17.27;4.35;;;;;;;14.17;57.04;101830.59;5004660;28;20489;-61
2022/05/13 06:05:29;;;;;;;14.75;4.20;;;;;;;14.21;56.47;101828.97;5004482;28;20068;-61
2022/05/13 06:07:55;;;;;;;10.15;3.92;;;;;;;14.20;56.79;101824.50;5006510;28;20473;-61
2022/05/13 06:10:22;;;;;;;15.85;4.70;;;;;;;14.32;56.82;101830.00;5003812;28;20065;-62
2022/05/13 06:12:47;;;;;;;15.95;4.88;;;;;;;14.32;56.68;101830.00;5005241;28;20034;-62
2022/05/13 06:15:13;;;;;;;13.55;4.60;;;;;;;14.37;56.62;101832.88;5003757;28;20038;-61
2022/05/13 06:17:44;;;;;;;17.92;4.32;;;;;;;14.38;57.13;101829.00;5009854;28;20037;-61
2022/05/13 06:20:09;;;;;;;20.48;4.57;;;;;;;14.42;56.97;101840.47;5004196;28;20038;-61
2022/05/13 06:22:35;;;;;;;16.83;4.35;;;;;;;14.46;56.90;101838.88;5006318;28;20068;-61
2022/05/13 06:25:02;;;;;;;12.70;4.95;;;;;;;14.48;57.04;101845.06;5009272;28;20034;-61
2022/05/13 06:27:27;;;;;;;14.10;4.30;;;;;;;14.58;56.63;101838.78;5012925;28;20408;-61
2022/05/13 06:29:53;;;;;;;15.40;3.92;;;;;;;14.98;57.54;101845.00;5018445;28;20044;-62
2022/05/13 06:32:18;;;;;;;14.07;4.00;;;;;;;15.29;56.54;101850.13;5011693;28;20026;-61
2022/05/13 06:34:44;;;;;;;17.52;5.32;;;;;;;15.17;55.61;101853.94;5012035;28;20073;-61
2022/05/13 06:37:09;;;;;;;15.63;5.00;;;;;;;15.02;56.29;101850.91;5011614;28;20058;-61
2022/05/13 06:39:34;;;;;;;17.17;5.28;;;;;;;15.00;56.32;101853.13;5007686;28;20072;-61
2022/05/13 06:41:59;;;;;;;10.57;4.70;;;;;;;14.92;56.90;101856.34;5010440;28;20806;-61
2022/05/13 06:44:25;;;;;;;16.38;5.57;;;;;;;14.92;56.96;101851.59;5011404;28;20083;-61
2022/05/13 06:46:50;;;;;;;18.25;5.13;;;;;;;14.93;56.75;101858.91;5006506;28;20040;-61
2022/05/13 06:49:15;;;;;;;19.05;5.45;;;;;;;14.84;57.74;101866.03;5010919;28;20121;-62
2022/05/13 06:51:41;;;;;;;14.98;5.18;;;;;;;14.93;57.36;101869.22;5010403;28;20037;-63
2022/05/13 06:54:10;;;;;;;11.65;4.95;;;;;;;14.95;57.46;101873.47;5004583;28;20041;-60
2022/05/13 06:56:38;;;;;;;16.00;5.53;;;;;;;14.95;57.78;101870.66;5007314;28;20117;-62
2022/05/13 06:59:04;;;;;;;16.92;5.68;;;;;;;15.05;57.50;101869.09;5009345;28;20509;-61
2022/05/13 07:01:30;;;;;;;11.27;5.40;;;;;;;15.02;57.32;101866.84;5008752;28;20117;-61
2022/05/13 07:03:55;;;;;;;15.85;5.53;;;;;;;15.06;57.41;101874.47;5011286;28;20145;-61
2022/05/13 07:06:21;;;;;;;22.08;5.75;;;;;;;15.02;57.81;101873.28;5008039;28;20069;-61
2022/05/13 07:08:49;;;;;;;14.55;4.70;;;;;;;15.08;57.74;101879.78;5009232;28;20125;-59
2022/05/13 07:11:15;;;;;;;15.27;5.30;;;;;;;15.13;56.93;101868.66;5006953;28;20359;-60
2022/05/13 07:13:41;;;;;;;14.88;5.43;;;;;;;15.12;57.17;101873.41;5010627;28;20061;-60
2022/05/13 07:16:06;;;;;;;14.50;4.93;;;;;;;15.20;57.03;101872.13;5008109;28;20034;-60
2022/05/13 07:18:31;;;;;;;17.35;5.95;;;;;;;15.17;57.37;101872.66;4998409;28;20409;-61
2022/05/13 07:20:57;;;;;;;15.40;5.78;;;;;;;15.28;57.49;101868.88;5011293;28;20108;-61
2022/05/13 07:23:22;;;;;;;19.38;6.60;;;;;;;15.21;57.84;101868.25;4996032;28;20049;-60
2022/05/13 07:25:47;;;;;;;18.90;5.72;;;;;;;15.27;56.55;101860.75;5004524;28;20029;-60
2022/05/13 07:28:13;;;;;;;17.85;6.00;;;;;;;15.32;57.42;101872.00;5010634;28;20026;-60
2022/05/13 07:30:38;;;;;;;14.52;6.60;;;;;;;15.31;56.83;101871.16;5010722;28;20038;-60
2022/05/13 07:33:04;;;;;;;16.98;6.22;;;;;;;15.46;57.09;101874.13;5012598;28;20030;-61
2022/05/13 07:35:30;;;;;;;13.55;5.57;;;;;;;15.55;56.89;101879.28;5011034;28;20072;-61
2022/05/13 07:37:55;;;;;;;13.98;5.40;;;;;;;15.61;56.47;101872.66;5011225;28;20026;-61
2022/05/13 07:43:05;;;;;;;14.02;4.88;;;;;;;15.86;55.64;101877.69;5011745;28;20057;-61
2022/05/13 07:45:32;;;;;;;15.00;5.40;;;;;;;15.95;55.43;101879.78;5004637;28;20026;-60
2022/05/13 07:47:57;;;;;;;12.35;5.85;;;;;;;16.01;55.09;101882.63;4992792;28;20034;-60
2022/05/13 07:50:22;;;;;;;13.23;5.10;;;;;;;16.02;55.11;101884.31;4992062;28;20022;-60
2022/05/13 07:52:50;;;;;;;12.73;4.93;;;;;;;16.15;54.63;101886.66;5012405;28;20022;-60
2022/05/13 07:55:18;;;;;;;14.38;5.65;;;;;;;16.08;55.02;101888.88;5012243;28;20029;-60
2022/05/13 07:57:44;;;;;;;12.00;5.50;;;;;;;16.14;54.24;101894.22;5013996;28;20044;-60
2022/05/13 08:00:25;;;;;;;18.65;5.07;;;;;;;16.15;54.23;101895.94;5010982;28;20026;-60
2022/05/13 08:02:52;;;;;;;14.52;4.90;;;;;;;16.14;53.92;101896.19;5011220;28;20045;-60
2022/05/13 08:05:18;;;;;;;13.60;4.90;;;;;;;16.12;53.80;101887.22;5010647;28;20564;-61
2022/05/13 08:07:43;;;;;;;15.00;4.60;;;;;;;16.10;53.62;101895.03;5011628;28;20030;-61
2022/05/13 08:10:09;;;;;;;14.88;5.22;;;;;;;16.09;54.05;101896.16;5012413;28;20063;-60
2022/05/13 08:12:35;;;;;;;15.55;4.53;;;;;;;16.13;54.17;101892.53;5010756;28;20838;-60
2022/05/13 08:15:00;;;;;;;12.32;4.78;;;;;;;16.16;53.78;101899.59;5011020;28;20037;-61
2022/05/13 08:17:25;;;;;;;11.35;5.10;;;;;;;16.20;53.58;101900.75;4999373;28;20087;-60
2022/05/13 08:19:50;;;;;;;13.30;5.00;;;;;;;16.27;53.58;101900.50;5013041;28;20044;-60
2022/05/13 08:22:19;;;;;;;14.00;4.88;;;;;;;16.17;53.71;101904.91;5013185;28;20042;-60
2022/05/13 08:24:44;;;;;;;9.80;4.43;;;;;;;16.14;52.84;101899.84;5011490;28;20492;-60
2022/05/13 08:27:09;;;;;;;11.48;4.18;;;;;;;16.13;52.64;101916.91;5010879;28;20026;-60
2022/05/13 08:29:34;;;;;;;8.02;3.30;;;;;;;16.25;52.38;101908.34;5011399;28;20038;-60
2022/05/13 08:32:00;;;;;;;14.05;3.78;;;;;;;16.38;52.60;101913.50;5009989;28;20042;-60
2022/05/13 08:34:25;;;;;;;9.82;3.88;;;;;;;16.48;51.92;101904.34;5009472;28;20052;-60
2022/05/13 08:36:50;;;;;;;10.55;3.78;;;;;;;16.45;51.49;101906.56;5021520;28;20740;-60
2022/05/13 08:39:16;;;;;;;7.60;3.03;;;;;;;16.53;51.37;101915.59;5010245;28;20050;-60
2022/05/13 08:42:03;;;;;;;9.07;3.55;;;;;;;16.66;51.05;101910.41;5011404;28;20030;-60
2022/05/13 08:44:28;;;;;;;9.80;3.60;;;;;;;16.74;50.79;101900.69;5022403;28;20112;-60
2022/05/13 08:47:09;;;;;;;9.05;3.55;;;;;;;16.86;50.83;101906.94;5001280;28;20121;-60
2022/05/13 08:49:46;;;;;;;10.20;3.33;;;;;;;16.95;50.18;101907.25;5009433;28;20093;-60
2022/05/13 08:54:59;;;;;;;11.00;3.60;;;;;;;16.96;50.28;101908.09;5008341;28;20041;-60
2022/05/13 08:57:28;;;;;;;12.40;3.38;;;;;;;16.95;49.16;101920.44;5007977;28;20041;-61
2022/05/13 09:00:03;;;;;;;12.10;3.70;;;;;;;16.91;49.48;101918.19;5009063;28;20037;-60
2022/05/13 09:02:41;;;;;;;10.75;3.55;;;;;;;16.99;49.95;101924.41;5005748;28;20037;-60
2022/05/13 09:05:26;;;;;;;13.82;4.00;;;;;;;17.06;49.96;101914.63;5008204;28;20026;-61
2022/05/13 09:07:52;;;;;;;11.70;3.65;;;;;;;17.07;50.25;101909.88;5009002;28;20026;-60
2022/05/13 09:10:18;;;;;;;10.13;3.40;;;;;;;17.09;49.34;101910.41;5009722;28;20104;-60
2022/05/13 09:12:52;;;;;;;9.32;3.10;;;;;;;17.07;49.50;101909.88;5009663;28;20038;-60
2022/05/13 09:15:23;;;;;;;10.73;2.97;;;;;;;17.15;48.92;101904.56;5008053;28;20038;-61
2022/05/13 09:18:17;;;;;;;13.27;2.95;;;;;;;17.24;48.37;101916.13;4999878;28;20044;-61
2022/05/13 09:20:54;;;;;;;8.32;2.80;;;;;;;17.27;47.80;101904.38;5007888;28;20120;-61
2022/05/13 09:23:20;;;;;;;10.55;3.17;;;;;;;17.41;47.78;101918.75;5008855;28;20037;-60
2022/05/13 09:25:57;;;;;;;10.60;2.60;;;;;;;17.47;47.29;101912.03;5009706;28;20030;-60
2022/05/13 09:28:27;;;;;;;9.95;2.83;;;;;;;17.56;46.71;101910.38;5009419;28;20388;-61
2022/05/13 09:31:07;;;;;;;7.45;2.75;;;;;;;17.63;47.02;101916.59;4999688;28;20038;-61
2022/05/13 09:33:37;;;;;;;7.10;2.22;;;;;;;17.76;45.71;101926.50;4990698;28;20047;-62
2022/05/13 09:36:06;;;;;;;7.10;2.47;;;;;;;17.77;46.62;101927.38;4989502;28;20042;-61
2022/05/13 09:38:46;;;;;;;9.25;2.60;;;;;;;17.89;47.01;101922.34;4989813;28;20030;-61
2022/05/13 09:41:23;;;;;;;9.73;2.20;;;;;;;17.89;45.53;101928.81;5007519;28;20037;-61
2022/05/13 09:44:16;;;;;;;6.30;2.38;;;;;;;17.98;46.02;101923.47;5008681;28;20034;-61
2022/05/13 09:46:48;;;;;;;8.45;2.38;;;;;;;18.06;45.23;101922.94;4996285;28;20050;-61
2022/05/13 09:49:33;;;;;;;9.18;2.80;;;;;;;18.17;45.52;101935.06;5010968;28;20152;-61
2022/05/13 09:52:13;;;;;;;13.40;2.92;;;;;;;18.18;45.35;101933.09;5014115;28;20120;-61
2022/05/13 09:54:40;;;;;;;10.05;2.50;;;;;;;18.16;44.69;101930.56;5014553;28;20026;-61
2022/05/13 09:57:12;;;;;;;8.57;2.33;;;;;;;18.06;45.15;101931.38;5009649;28;20034;-61
2022/05/13 09:59:41;;;;;;;6.17;2.23;;;;;;;17.97;44.29;101933.03;5005787;28;20392;-61
2022/05/13 10:02:23;;;;;;;8.27;2.40;;;;;;;18.00;45.26;101934.44;5007706;28;20292;-61
2022/05/13 10:04:54;;;;;;;9.13;2.20;;;;;;;18.02;44.40;101921.81;5007168;28;20060;-59
2022/05/13 10:07:23;;;;;;;8.57;2.20;;;;;;;17.95;44.43;101932.47;5010272;28;20042;-59
2022/05/13 10:15:45;;;;;;;12.90;2.45;;;;;;;18.00;44.24;101931.63;5009992;28;20467;-60
2022/05/13 10:18:29;;;;;;;8.60;2.53;;;;;;;17.90;44.80;101943.69;5009551;28;20033;-60
2022/05/13 10:21:03;;;;;;;9.38;2.10;;;;;;;17.84;44.92;101933.53;5004016;28;20240;-60
2022/05/13 10:24:05;;;;;;;7.50;2.60;;;;;;;17.84;45.04;101947.59;5005174;28;20061;-61
2022/05/13 10:26:35;;;;;;;8.93;2.47;;;;;;;17.75;44.88;101936.03;5010348;28;20021;-61
2022/05/13 10:29:19;;;;;;;9.40;2.30;;;;;;;17.75;45.02;101932.41;5009576;28;20037;-62
2022/05/13 10:31:46;;;;;;;6.85;2.10;;;;;;;17.87;44.42;101942.25;5007783;28;20026;-62
2022/05/13 10:34:28;;;;;;;7.30;2.25;;;;;;;17.99;44.44;101939.22;5011161;28;20104;-61
2022/05/13 10:37:17;;;;;;;5.85;2.03;;;;;;;17.99;44.47;101936.41;5013672;28;20084;-61
2022/05/13 10:39:51;;;;;;;8.20;2.20;;;;;;;17.95;44.48;101934.44;5011359;28;20030;-61
2022/05/13 10:42:26;;;;;;;9.43;2.40;;;;;;;17.86;44.18;101926.53;5010894;28;20033;-61
2022/05/13 10:44:58;;;;;;;5.50;2.03;;;;;;;17.90;43.78;101930.47;4999626;28;20596;-61
2022/05/13 10:47:37;;;;;;;12.27;2.60;;;;;;;18.02;43.77;101920.97;5009935;28;20547;-61
2022/05/13 10:50:08;;;;;;;10.50;2.38;;;;;;;18.21;44.08;101943.78;5010055;28;20026;-61
2022/05/13 10:52:43;;;;;;;8.30;2.60;;;;;;;18.22;43.72;101943.47;5009899;28;20071;-61
2022/05/13 10:55:47;;;;;;;5.57;2.40;;;;;;;18.17;44.38;101935.06;5012681;28;20433;-60
2022/05/13 10:58:46;;;;;;;8.48;2.20;;;;;;;18.28;44.52;101930.31;5009185;28;20124;-60
2022/05/13 11:01:31;;;;;;;7.88;2.05;;;;;;;18.42;44.23;101939.84;5007128;28;20042;-61
2022/05/13 11:04:06;;;;;;;7.05;2.50;;;;;;;18.51;42.76;101940.13;5012861;28;20397;-61
2022/05/13 11:06:53;;;;;;;11.25;2.78;;;;;;;18.50;43.46;101930.03;5008268;28;20112;-61
2022/05/13 11:09:42;;;;;;;9.75;2.65;;;;;;;18.44;43.58;101948.03;5007399;28;20040;-62
2022/05/13 11:12:31;;;;;;;8.60;2.78;;;;;;;18.54;43.35;101928.34;5011456;28;20052;-62
2022/05/13 11:15:45;;;;;;;8.88;2.50;;;;;;;18.72;44.04;101933.44;5008981;28;20038;-63
2022/05/13 11:18:32;;;;;;;9.98;2.22;;;;;;;18.85;42.92;101940.47;5007432;28;20500;-62
2022/05/13 11:21:19;;;;;;;6.20;1.70;;;;;;;18.81;41.64;101947.78;5010533;28;20042;-63
2022/05/13 11:27:08;;;;;;;;;;;;;;;18.74;42.64;101945.25;5001847;28;20064;-62
2022/05/13 11:29:43;;;;;;;11.38;2.08;;;;;;;18.56;43.05;101948.59;5004215;28;20527;-61
2022/05/13 11:32:31;;;;;;;7.70;2.63;;;;;;;18.51;43.20;101948.56;5012181;28;20109;-62
2022/05/13 11:35:12;;;;;;;7.63;2.30;;;;;;;18.49;43.13;101939.59;5009943;28;20038;-61
2022/05/13 11:37:40;;;;;;;8.68;2.25;;;;;;;18.60;43.12;101944.94;5009499;28;20026;-61
2022/05/13 11:40:11;;;;;;;5.10;1.60;;;;;;;18.73;42.77;101939.91;5008459;28;20075;-61
2022/05/13 11:46:01;;;;;;;7.32;2.60;;;;;;;18.97;43.35;101929.75;5012146;28;20100;-60
2022/05/13 11:48:36;;;;;;;9.63;2.53;;;;;;;19.04;42.42;101943.53;5008779;28;20034;-60
2022/05/13 11:51:15;;;;;;;5.80;2.13;;;;;;;19.09;41.67;101935.06;5009151;28;20109;-61
2022/05/13 11:54:01;;;;;;;5.88;2.38;;;;;;;19.12;41.24;101940.97;5010402;28;20026;-61
2022/05/13 11:56:29;;;;;;;14.30;2.80;;;;;;;19.08;41.45;101941.84;5009851;28;20563;-61
2022/05/13 11:58:57;;;;;;;6.10;2.33;;;;;;;19.16;41.68;101943.25;5005751;28;20092;-61
2022/05/13 12:01:34;;;;;;;6.15;1.98;;;;;;;19.19;41.53;101926.63;5011905;28;20022;-61